Terminal Aerodrome Forecast
Issued by NWS Cleveland, OH

Home | Current Version | Previous Version | Graphics & Text | Print | Product List | Glossary On
Versions: 1 2 3 4 5 6 7 8 9 10 11 12 13 14 15 16
832
FTUS41 KCLE 050524
TAFYNG
TAF
KYNG 050524Z 0506/0606 28008KT P6SM -SHSN BKN025 OVC035
      TEMPO 0508/0512 SCT025
     FM051200 28006KT P6SM -SHSN OVC035
     FM052000 26008KT P6SM BKN035=

USA.gov is the U.S. government's official web portal to all federal, state and local government web resources and services.